Portada
METAR-TAF:

METAR-TAF

Aeropuertos :

Aeropuerto de Zaragoza

Zaragoza, España

latitud: 41-40N, longitud: 001-01W, altitud: 263 m

Observación

El informe se hizo hace 24 minutos, a las 17:00 UTC
Viento 24 kt del noroeste con ráfagas de 35 kt, variando entre oeste-noroeste y norte
Temperatura 13°C
Humedad 38%
Presión 1024 hPa
Visibilidad 10 km o más
Escasas nubes a una altura de 4000 ft

METAR: LEZG 191700Z 32024G35KT 290V350 9999 FEW040 13/M01 Q1024

Hora: 18:24 (17:24 UTC)

Pronóstico

El informe se hizo hace 6 horas y 24 minutos, a las 11:00 UTC
Pronóstico válido del 19 a las 12 UTC al 20 a las 12 UTC
Viento 18 kt del oeste-noroeste
Visibilidad 10 km o más
Escasas nubes a una altura de 4000 ft
Temporalmente
del 19 a las 12 UTC al 19 a las 20 UTC
Viento 25 kt del noroeste con ráfagas de 35 kt

TAF: LEZG 191100Z 1912/2012 30018KT 9999 FEW040 TX17/1914Z TN04/2006Z TEMPO 1912/1920 31025G35KT

Observaciones y pronósticos meteorológicos de más de 4000 aeropuertos (mensajes METAR y TAF).

Los puntos amarillos y rojos representan las estaciones disponibles.

Ponga el ratón en el punto deseado para ver el nombre de la estación.

Haga clic para ver las observaciones y los pronósticos meteorológicos.

Para cambiar el mapa : haga clic en los botones verdes con una cruz de color negro para hacer un zoom, en el botón verde con un guión para alejar o en las flechas verdes para mapas adyacentes.


METAR-TAF: